Zollikon, Switzerland
Current Conditions -  °F | °C
As of 2:50 AM on Sunday 23 Nov 2014 (Local Time) from LSMD Reporting Station
Moderate Fog Moderate Fog  
Wind Chill: 39°   Ceiling: 17000
Heat Index: 39°   Visibility: 0.28mi
Dew Point: 39°   Wind: 0mph
Humidity: 100%   Direction: NA
Pressure: 30.21"   Gusts: NA
Location:  47.34°N, 8.58°E
Report Text: LSMD 230150Z AUTO 00000KT 0450NDV R11/0600N R29/0500N FG SCT002 OVC170 04/04 Q1023 RMK RED
Loading
Personal Weather Stations






























Interactive Weather Map New forecast layout! Learn more

10-Day Weather Forecast

Advertisements
Track Severe Weather on mobile